createdAt,value
2023-02-02T00:01:51.250Z,99316.84
2023-02-02T00:04:24.626Z,99313.05
2023-02-02T00:06:52.855Z,99309.80
2023-02-02T00:09:21.039Z,99307.55
2023-02-02T00:11:50.436Z,99308.91
2023-02-02T00:14:18.773Z,99310.28
2023-02-02T00:16:49.180Z,99311.44
2023-02-02T00:19:22.265Z,99305.52
2023-02-02T00:21:50.508Z,99301.15
2023-02-02T00:24:19.181Z,99302.30
2023-02-02T00:26:49.794Z,99303.98
2023-02-02T00:29:20.500Z,99309.86
2023-02-02T00:31:48.909Z,99309.67
2023-02-02T00:34:17.244Z,99308.11
2023-02-02T00:36:48.067Z,99306.40
2023-02-02T00:39:19.945Z,99307.48
2023-02-02T00:41:48.289Z,99309.64
2023-02-02T00:44:45.975Z,99309.67
2023-02-02T00:47:14.141Z,99303.64
2023-02-02T00:49:42.178Z,99302.42
2023-02-02T00:52:11.822Z,99305.55
2023-02-02T00:54:40.223Z,99305.59
2023-02-02T00:57:12.148Z,99301.99
2023-02-02T00:59:40.694Z,99299.91
2023-02-02T01:02:12.549Z,99298.70
2023-02-02T01:04:41.112Z,99297.28
2023-02-02T01:07:10.857Z,99294.50
2023-02-02T01:09:39.063Z,99297.10
2023-02-02T01:12:10.491Z,99292.91
2023-02-02T01:14:38.741Z,99292.52
2023-02-02T01:17:06.929Z,99290.19
2023-02-02T01:19:36.199Z,99289.44
2023-02-02T01:22:04.177Z,99287.07
2023-02-02T01:24:32.629Z,99285.23
2023-02-02T01:27:01.411Z,99283.09
2023-02-02T01:29:29.880Z,99286.17
2023-02-02T01:31:57.974Z,99286.14
2023-02-02T01:34:26.478Z,99290.40
2023-02-02T01:36:56.816Z,99290.17
2023-02-02T01:39:24.935Z,99289.58
2023-02-02T01:41:53.069Z,99289.02
2023-02-02T01:44:52.562Z,99289.98
2023-02-02T01:47:22.248Z,99293.41
2023-02-02T01:49:50.321Z,99294.95
2023-02-02T01:52:19.157Z,99294.77
2023-02-02T01:54:53.311Z,99292.11
2023-02-02T01:57:33.697Z,99296.17
2023-02-02T02:00:03.306Z,99296.66
2023-02-02T02:02:44.794Z,99293.31
2023-02-02T02:05:15.925Z,99300.52
2023-02-02T02:07:45.964Z,99300.31
2023-02-02T02:10:14.655Z,99296.32
2023-02-02T02:12:45.215Z,99295.20
2023-02-02T02:15:31.950Z,99297.33
2023-02-02T02:18:25.747Z,99296.09
2023-02-02T02:21:22.237Z,99295.84
2023-02-02T02:24:59.373Z,99297.35
2023-02-02T02:27:47.408Z,99296.07
2023-02-02T02:30:25.849Z,99296.02
2023-02-02T02:33:02.377Z,99300.48
2023-02-02T02:35:40.455Z,99303.38
2023-02-02T02:38:12.027Z,99302.82
2023-02-02T02:40:47.503Z,99304.54
2023-02-02T02:43:34.625Z,99305.41
2023-02-02T02:46:02.844Z,99300.19
2023-02-02T02:48:32.331Z,99298.33
2023-02-02T02:51:43.919Z,99292.29
2023-02-02T02:54:43.246Z,99295.09
2023-02-02T02:57:29.808Z,99298.94
2023-02-02T03:00:09.786Z,99297.92
2023-02-02T03:03:20.389Z,99301.20
2023-02-02T03:05:53.238Z,99300.63
2023-02-02T03:08:36.253Z,99300.91
2023-02-02T03:11:05.623Z,99299.86
2023-02-02T03:13:33.886Z,99299.30
2023-02-02T03:16:02.233Z,99296.11
2023-02-02T03:18:31.616Z,99296.98
2023-02-02T03:20:59.906Z,99297.34
2023-02-02T03:23:28.245Z,99301.10
2023-02-02T03:25:56.227Z,99301.78
2023-02-02T03:28:24.612Z,99303.01
2023-02-02T03:30:52.790Z,99309.27
2023-02-02T03:33:21.211Z,99314.71
2023-02-02T03:35:49.324Z,99318.40
2023-02-02T03:38:21.891Z,99318.61
2023-02-02T03:40:51.253Z,99319.55
2023-02-02T03:43:23.204Z,99316.70
2023-02-02T03:46:04.459Z,99314.58
2023-02-02T03:48:35.687Z,99314.69
2023-02-02T03:51:14.222Z,99314.09
2023-02-02T03:53:47.737Z,99312.90
2023-02-02T03:56:16.126Z,99311.05
2023-02-02T03:58:46.353Z,99313.23
2023-02-02T04:01:15.077Z,99313.77
2023-02-02T04:03:43.317Z,99313.15
2023-02-02T04:06:11.669Z,99318.04
2023-02-02T04:08:39.711Z,99322.62
2023-02-02T04:11:11.243Z,99329.77
2023-02-02T04:13:40.139Z,99333.85
2023-02-02T04:16:08.271Z,99337.75
2023-02-02T04:18:39.077Z,99336.41
2023-02-02T04:21:07.344Z,99340.27
2023-02-02T04:23:35.514Z,99344.09
2023-02-02T04:26:03.736Z,99351.38
2023-02-02T04:28:31.756Z,99350.85
2023-02-02T04:31:00.022Z,99354.80
2023-02-02T04:33:28.623Z,99359.89
2023-02-02T04:35:56.665Z,99360.26
2023-02-02T04:38:28.838Z,99358.00
2023-02-02T04:40:57.203Z,99358.02
2023-02-02T04:43:25.541Z,99357.82
2023-02-02T04:45:56.885Z,99357.11
2023-02-02T04:48:24.971Z,99357.09
2023-02-02T04:51:01.879Z,99357.25
2023-02-02T04:53:30.255Z,99360.67
2023-02-02T04:55:58.598Z,99366.39
2023-02-02T04:58:27.100Z,99370.73
2023-02-02T05:00:55.457Z,99369.17
2023-02-02T05:03:24.309Z,99368.48
2023-02-02T05:05:52.318Z,99370.59
2023-02-02T05:08:20.558Z,99372.69
2023-02-02T05:10:50.369Z,99373.23
2023-02-02T05:13:20.454Z,99372.93
2023-02-02T05:15:48.690Z,99374.02
2023-02-02T05:18:17.460Z,99374.67
2023-02-02T05:20:45.535Z,99374.83
2023-02-02T05:23:13.623Z,99376.91
2023-02-02T05:25:42.503Z,99373.09
2023-02-02T05:28:11.012Z,99373.44
2023-02-02T05:30:40.607Z,99373.95
2023-02-02T05:33:08.690Z,99374.98
2023-02-02T05:35:37.058Z,99374.80
2023-02-02T05:38:05.681Z,99380.35
2023-02-02T05:40:34.062Z,99379.83
2023-02-02T05:43:02.401Z,99380.48
2023-02-02T05:45:30.929Z,99382.66
2023-02-02T05:47:59.207Z,99383.90
2023-02-02T05:50:27.381Z,99382.85
2023-02-02T05:53:03.179Z,99384.89
2023-02-02T05:55:31.678Z,99385.38
2023-02-02T05:57:59.733Z,99386.73
2023-02-02T06:00:27.838Z,99385.48
2023-02-02T08:15:37.693Z,99474.48
2023-02-02T08:18:05.735Z,99485.31
2023-02-02T08:20:34.138Z,99484.05
2023-02-02T08:23:02.205Z,99487.03
2023-02-02T08:25:30.463Z,99483.37
2023-02-02T08:27:59.198Z,99483.06
2023-02-02T08:30:27.723Z,99485.38
2023-02-02T08:33:59.474Z,99485.24
2023-02-02T08:36:29.527Z,99491.16
2023-02-02T08:39:03.277Z,99493.36
2023-02-02T08:41:32.759Z,99485.52
2023-02-02T08:44:00.827Z,99485.33
2023-02-02T08:46:29.302Z,99488.80
2023-02-02T08:48:58.088Z,99488.08
2023-02-02T08:51:27.130Z,99484.14
2023-02-02T08:53:55.820Z,99482.09
2023-02-02T08:56:25.603Z,99483.81
2023-02-02T08:59:03.242Z,99476.31
2023-02-02T09:01:32.585Z,99474.68
2023-02-02T09:04:04.420Z,99475.05
2023-02-02T09:06:33.758Z,99468.48
2023-02-02T09:09:05.464Z,99463.20
2023-02-02T09:11:33.823Z,99462.52
2023-02-02T09:14:03.317Z,99458.92
2023-02-02T09:16:32.430Z,99455.87
2023-02-02T09:19:00.463Z,99452.84
2023-02-02T09:21:28.747Z,99450.09
2023-02-02T09:23:56.769Z,99449.45
2023-02-02T09:26:27.219Z,99447.29
2023-02-02T09:28:59.822Z,99444.34
2023-02-02T09:31:28.066Z,99447.00
2023-02-02T09:33:56.121Z,99445.94
2023-02-02T09:36:24.960Z,99441.55
2023-02-02T09:38:53.177Z,99436.81
2023-02-02T09:41:27.268Z,99435.92
2023-02-02T09:48:32.154Z,99432.30
2023-02-02T09:51:03.503Z,99429.30
2023-02-02T09:53:53.171Z,99430.88
2023-02-02T09:56:54.664Z,99427.17
2023-02-02T09:59:28.337Z,99418.05
2023-02-02T10:01:58.621Z,99412.84
2023-02-02T10:04:41.008Z,99413.89
2023-02-02T10:07:25.215Z,99415.40
2023-02-02T10:09:58.685Z,99411.05
2023-02-02T10:13:03.081Z,99413.14
2023-02-02T10:15:44.555Z,99411.17
2023-02-02T10:18:15.726Z,99406.38
2023-02-02T10:20:46.749Z,99407.85
2023-02-02T10:23:37.861Z,99410.63
2023-02-02T10:26:23.725Z,99410.17
2023-02-02T10:29:14.208Z,99410.67
2023-02-02T10:31:44.669Z,99411.29
2023-02-02T10:34:21.962Z,99415.04
2023-02-02T10:37:12.780Z,99413.86
2023-02-02T10:39:57.744Z,99412.09
2023-02-02T10:42:34.829Z,99407.45
2023-02-02T10:45:04.897Z,99415.14
2023-02-02T10:47:33.421Z,99416.91
2023-02-02T10:50:13.884Z,99415.33
2023-02-02T10:52:55.681Z,99409.96
2023-02-02T10:55:56.896Z,99411.28
2023-02-02T10:58:35.973Z,99411.26
2023-02-02T11:01:08.040Z,99409.63
2023-02-02T11:03:37.104Z,99410.71
2023-02-02T11:06:25.302Z,99411.77
2023-02-02T11:08:58.627Z,99414.59
2023-02-02T11:11:30.007Z,99408.72
2023-02-02T11:14:10.310Z,99406.44
2023-02-02T11:16:43.755Z,99408.02
2023-02-02T11:19:19.766Z,99404.71
2023-02-02T11:21:54.882Z,99403.06
2023-02-02T11:24:48.413Z,99401.48
2023-02-02T11:27:41.569Z,99404.81
2023-02-02T11:30:22.632Z,99407.34
2023-02-02T11:32:51.112Z,99403.28
2023-02-02T11:35:26.846Z,99405.66
2023-02-02T11:37:59.086Z,99410.70
2023-02-02T11:40:31.370Z,99408.00
2023-02-02T11:43:01.555Z,99410.13
2023-02-02T11:45:35.469Z,99409.73
2023-02-02T11:48:18.140Z,99411.51
2023-02-02T11:50:51.091Z,99416.05
2023-02-02T11:53:47.789Z,99417.61
2023-02-02T11:56:24.009Z,99414.71
2023-02-02T11:58:56.680Z,99416.45
2023-02-02T12:01:27.337Z,99421.09
2023-02-02T12:03:57.055Z,99421.34
2023-02-02T12:06:25.833Z,99426.67
2023-02-02T12:08:57.429Z,99427.62
2023-02-02T12:11:29.682Z,99430.55
2023-02-02T12:14:24.039Z,99434.52
2023-02-02T12:16:54.801Z,99433.46
2023-02-02T12:19:35.029Z,99435.41
2023-02-02T12:22:46.546Z,99438.42
2023-02-02T12:25:14.672Z,99439.66
2023-02-02T12:27:49.474Z,99443.96
2023-02-02T12:30:28.680Z,99443.15
2023-02-02T12:33:21.854Z,99442.99
2023-02-02T12:36:40.747Z,99447.67
2023-02-02T12:39:18.847Z,99456.66
2023-02-02T12:41:53.062Z,99455.20
2023-02-02T12:44:30.503Z,99457.46
2023-02-02T12:47:26.656Z,99465.20
2023-02-02T12:50:23.883Z,99467.92
2023-02-02T12:52:59.676Z,99472.09
2023-02-02T12:56:05.921Z,99476.60
2023-02-02T12:59:19.420Z,99474.55
2023-02-02T13:01:54.200Z,99476.34
2023-02-02T13:04:50.435Z,99472.93
2023-02-02T13:07:37.374Z,99474.68
2023-02-02T13:10:28.689Z,99483.92
2023-02-02T13:13:04.858Z,99479.26
2023-02-02T13:15:36.208Z,99482.44
2023-02-02T13:18:08.472Z,99484.22
2023-02-02T13:20:45.836Z,99483.36
2023-02-02T13:23:26.598Z,99487.85
2023-02-02T13:26:00.757Z,99491.08
2023-02-02T13:28:40.471Z,99493.53
2023-02-02T13:31:14.932Z,99495.94
2023-02-02T13:33:43.797Z,99496.09
2023-02-02T13:36:26.035Z,99497.20
2023-02-02T13:38:59.831Z,99500.36
2023-02-02T13:41:27.885Z,99499.35
2023-02-02T13:44:04.296Z,99498.00
2023-02-02T13:46:48.331Z,99493.38
2023-02-02T13:49:35.003Z,99493.21
2023-02-02T13:52:28.609Z,99498.49
2023-02-02T13:55:18.562Z,99499.85
2023-02-02T13:58:12.603Z,99501.13
2023-02-02T14:00:47.775Z,99500.23
2023-02-02T14:03:26.443Z,99498.79
2023-02-02T14:06:05.130Z,99498.04
2023-02-02T14:08:33.209Z,99502.79
2023-02-02T14:11:06.365Z,99508.63
2023-02-02T14:14:07.607Z,99510.40
2023-02-02T14:16:35.604Z,99515.42
2023-02-02T14:19:06.659Z,99519.16
2023-02-02T14:21:37.797Z,99516.91
2023-02-02T14:24:27.551Z,99519.49
2023-02-02T14:26:57.299Z,99521.58
2023-02-02T14:29:31.788Z,99521.98
2023-02-02T14:32:00.929Z,99521.75
2023-02-02T14:34:42.510Z,99519.41
2023-02-02T14:37:23.057Z,99520.71
2023-02-02T14:40:06.801Z,99521.66
2023-02-02T14:43:00.334Z,99524.42
2023-02-02T14:45:33.126Z,99524.38
2023-02-02T14:48:07.593Z,99526.08
2023-02-02T14:50:40.665Z,99526.94
2023-02-02T14:53:21.377Z,99522.19
2023-02-02T14:55:55.984Z,99518.98
2023-02-02T14:58:53.152Z,99518.88
2023-02-02T15:01:24.281Z,99517.81
2023-02-02T15:03:57.542Z,99521.67
2023-02-02T15:06:26.649Z,99527.77
2023-02-02T15:09:33.609Z,99531.58
2023-02-02T15:12:04.984Z,99536.81
2023-02-02T15:14:33.155Z,99537.91
2023-02-02T15:17:03.470Z,99541.13
2023-02-02T15:19:38.273Z,99545.61
2023-02-02T15:22:33.000Z,99545.08
2023-02-02T15:25:05.606Z,99549.86
2023-02-02T15:27:33.909Z,99552.38
2023-02-02T15:30:04.528Z,99559.09
2023-02-02T15:32:34.098Z,99560.85
2023-02-02T15:35:04.473Z,99560.20
2023-02-02T15:37:40.469Z,99561.80
2023-02-02T15:40:16.223Z,99563.26
2023-02-02T15:42:55.070Z,99564.52
2023-02-02T15:45:43.688Z,99566.95
2023-02-02T15:48:31.692Z,99566.77
2023-02-02T15:51:02.415Z,99574.21
2023-02-02T15:53:42.747Z,99575.37
2023-02-02T15:56:23.410Z,99576.10
2023-02-02T15:58:53.904Z,99576.77
2023-02-02T16:01:23.293Z,99581.45
2023-02-02T16:03:54.151Z,99584.34
2023-02-02T16:06:22.514Z,99581.84
2023-02-02T16:08:50.517Z,99583.70
2023-02-02T16:11:20.489Z,99586.27
2023-02-02T16:14:03.031Z,99594.01
2023-02-02T16:16:36.048Z,99595.33
2023-02-02T16:19:14.874Z,99599.77
2023-02-02T16:22:16.031Z,99605.97
2023-02-02T16:24:47.474Z,99609.05
2023-02-02T16:27:19.619Z,99612.42
2023-02-02T16:29:48.074Z,99616.34
2023-02-02T16:32:37.254Z,99616.48
2023-02-02T16:35:07.694Z,99618.67
2023-02-02T16:37:36.581Z,99620.84
2023-02-02T16:40:27.686Z,99624.58
2023-02-02T16:43:06.721Z,99624.08
2023-02-02T16:46:04.723Z,99624.20
2023-02-02T16:48:38.793Z,99625.54
2023-02-02T16:51:16.077Z,99624.34
2023-02-02T16:53:48.071Z,99628.45
2023-02-02T16:56:39.211Z,99627.55
2023-02-02T16:59:18.871Z,99630.07
2023-02-02T17:01:52.555Z,99632.27
2023-02-02T17:04:28.582Z,99635.71
2023-02-02T17:06:58.504Z,99639.20
2023-02-02T17:09:35.646Z,99640.47
2023-02-02T17:12:34.778Z,99637.58
2023-02-02T17:15:29.116Z,99633.94
2023-02-02T17:17:57.935Z,99634.23
2023-02-02T17:20:26.914Z,99636.98
2023-02-02T17:23:07.272Z,99642.81
2023-02-02T17:25:37.449Z,99646.54
2023-02-02T17:28:07.955Z,99643.33
2023-02-02T17:30:36.979Z,99646.20
2023-02-02T17:33:05.856Z,99654.96
2023-02-02T17:35:51.493Z,99651.73
2023-02-02T17:38:22.519Z,99655.31
2023-02-02T17:40:51.927Z,99656.48
2023-02-02T17:43:20.539Z,99657.48
2023-02-02T17:45:51.680Z,99659.17
2023-02-02T17:48:21.166Z,99659.98
2023-02-02T17:50:49.626Z,99662.88
2023-02-02T17:53:20.471Z,99666.42
2023-02-02T17:55:50.094Z,99668.23
2023-02-02T17:58:20.773Z,99665.36
2023-02-02T18:00:53.686Z,99667.95
2023-02-02T18:03:26.758Z,99667.62
2023-02-02T18:05:55.940Z,99670.41
2023-02-02T18:08:24.399Z,99671.63
2023-02-02T18:10:55.182Z,99671.63
2023-02-02T18:13:23.923Z,99671.30
2023-02-02T18:15:53.426Z,99668.89
2023-02-02T18:18:22.224Z,99674.48
2023-02-02T18:20:52.006Z,99676.11
2023-02-02T18:23:21.834Z,99675.83
2023-02-02T18:25:50.395Z,99679.84
2023-02-02T18:28:19.056Z,99680.71
2023-02-02T18:30:47.732Z,99685.21
2023-02-02T18:33:20.196Z,99684.33
2023-02-02T18:35:48.977Z,99683.12
2023-02-02T18:38:18.065Z,99684.17
2023-02-02T18:40:46.209Z,99682.96
2023-02-02T18:43:14.621Z,99682.34
2023-02-02T18:45:43.204Z,99680.81
2023-02-02T18:48:11.652Z,99682.23
2023-02-02T18:50:40.111Z,99681.05
2023-02-02T18:53:08.558Z,99682.48
2023-02-02T18:55:37.560Z,99683.04
2023-02-02T18:58:08.278Z,99686.14
2023-02-02T19:00:37.221Z,99685.44
2023-02-02T19:03:06.752Z,99682.30
2023-02-02T19:06:01.089Z,99684.90
2023-02-02T19:08:30.689Z,99686.17
2023-02-02T19:11:15.188Z,99687.95
2023-02-02T19:13:43.671Z,99693.14
2023-02-02T19:16:27.990Z,99693.54
2023-02-02T19:19:08.549Z,99698.15
2023-02-02T19:21:36.950Z,99697.89
2023-02-02T19:24:09.991Z,99696.59
2023-02-02T19:26:40.488Z,99699.24
2023-02-02T19:29:19.015Z,99702.02
2023-02-02T19:32:02.864Z,99705.03
2023-02-02T19:34:33.860Z,99705.48
2023-02-02T19:37:03.007Z,99704.23
2023-02-02T19:39:32.972Z,99703.27
2023-02-02T19:42:02.161Z,99700.73
2023-02-02T19:44:37.239Z,99701.98
2023-02-02T19:47:26.854Z,99700.86
2023-02-02T19:49:55.870Z,99700.64
2023-02-02T19:52:25.785Z,99700.73
2023-02-02T19:54:54.197Z,99700.45
2023-02-02T19:57:36.992Z,99701.88
2023-02-02T20:00:18.688Z,99699.63
2023-02-02T20:02:59.985Z,99701.11
2023-02-02T20:05:34.194Z,99703.30
2023-02-02T20:08:42.270Z,99704.51
2023-02-02T20:11:32.194Z,99702.08
2023-02-02T20:14:00.819Z,99702.24
2023-02-02T20:16:37.010Z,99704.52
2023-02-02T20:19:06.399Z,99703.83
2023-02-02T20:21:44.053Z,99710.36
2023-02-02T20:24:50.235Z,99713.98
2023-02-02T20:27:20.844Z,99715.60
2023-02-02T20:29:50.393Z,99715.29
2023-02-02T20:32:22.554Z,99713.93
2023-02-02T20:34:51.257Z,99712.95
2023-02-02T20:37:30.358Z,99716.77
2023-02-02T20:40:01.363Z,99717.27
2023-02-02T20:42:30.120Z,99719.02
2023-02-02T20:44:58.334Z,99723.55
2023-02-02T20:47:26.901Z,99724.66
2023-02-02T20:49:55.218Z,99728.70
2023-02-02T20:52:24.240Z,99731.40
2023-02-02T20:54:52.544Z,99730.73
2023-02-02T20:57:20.587Z,99733.14
2023-02-02T20:59:49.932Z,99734.31
2023-02-02T21:02:22.732Z,99735.85
2023-02-02T21:04:51.381Z,99737.89
2023-02-02T21:07:21.060Z,99738.94
2023-02-02T21:09:50.374Z,99743.61
2023-02-02T21:12:18.563Z,99744.69
2023-02-02T21:14:47.211Z,99744.58
2023-02-02T21:17:17.897Z,99743.19
2023-02-02T21:19:47.088Z,99739.86
2023-02-02T21:22:15.377Z,99741.20
2023-02-02T21:24:43.559Z,99744.67
2023-02-02T21:27:12.015Z,99744.49
2023-02-02T21:29:40.397Z,99745.04
2023-02-02T21:32:08.456Z,99746.05
2023-02-02T21:34:37.931Z,99744.30
2023-02-02T21:37:14.193Z,99745.35
2023-02-02T21:39:49.709Z,99749.15
2023-02-02T21:42:22.257Z,99747.58
2023-02-02T21:44:58.141Z,99753.94
2023-02-02T21:47:31.332Z,99751.02
2023-02-02T21:50:16.024Z,99746.90
2023-02-02T21:52:44.689Z,99742.30
2023-02-02T21:55:32.583Z,99746.15
2023-02-02T21:58:18.797Z,99742.02
2023-02-02T22:00:50.196Z,99743.56
2023-02-02T22:03:40.765Z,99747.17
2023-02-02T22:06:44.053Z,99744.39
2023-02-02T22:09:18.216Z,99741.74
2023-02-02T22:11:52.207Z,99742.19
2023-02-02T22:14:28.513Z,99739.38
2023-02-02T22:16:59.040Z,99735.39
2023-02-02T22:19:36.803Z,99738.52
2023-02-02T22:22:09.783Z,99741.98
2023-02-02T22:24:39.581Z,99742.33
2023-02-02T22:27:38.052Z,99744.20
2023-02-02T22:30:18.555Z,99745.73
2023-02-02T22:32:47.218Z,99747.48
2023-02-02T22:35:16.030Z,99742.95
2023-02-02T22:37:45.391Z,99744.16
2023-02-02T22:40:13.724Z,99739.83
2023-02-02T22:42:42.677Z,99742.27
2023-02-02T22:45:10.964Z,99737.60
2023-02-02T22:47:39.166Z,99738.99
2023-02-02T22:50:07.470Z,99734.86
2023-02-02T22:52:36.268Z,99734.52
2023-02-02T22:55:04.676Z,99741.32
2023-02-02T22:57:33.518Z,99743.09
2023-02-02T23:00:02.923Z,99743.11
2023-02-02T23:02:31.507Z,99744.48
2023-02-02T23:04:59.665Z,99744.83
2023-02-02T23:07:27.839Z,99748.30
2023-02-02T23:09:55.867Z,99749.55
2023-02-02T23:12:24.079Z,99745.73
2023-02-02T23:14:52.731Z,99744.13
2023-02-02T23:17:20.932Z,99742.23
2023-02-02T23:19:49.254Z,99742.60
2023-02-02T23:22:17.216Z,99742.17
2023-02-02T23:24:45.389Z,99739.44
2023-02-02T23:27:14.038Z,99742.37
2023-02-02T23:29:42.232Z,99746.34
2023-02-02T23:32:10.223Z,99745.11
2023-02-02T23:40:40.354Z,99752.76
2023-02-02T23:43:08.719Z,99754.39
2023-02-02T23:45:37.306Z,99755.97
2023-02-02T23:48:06.684Z,99759.15
2023-02-02T23:50:35.003Z,99763.34
2023-02-02T23:53:03.747Z,99756.07
2023-02-02T23:55:32.414Z,99760.91
2023-02-02T23:58:00.857Z,99759.17
